Charbonneau, Oregon
Current Conditions -  °F | °C
As of 5:53 AM on Friday 19 Dec 2014 (Local Time) from KUAO Reporting Station
Overcast Overcast  
Wind Chill: 41°   Ceiling: 7000
Heat Index: 46°   Visibility: 10mi
Dew Point: 44°   Wind: 10mph
Humidity: 93%   Direction: 180°S
Pressure: 29.93"   Gusts: NA
Location:  45.309°N, 122.769°W
Report Text: KUAO 191353Z AUTO 18009KT 10SM OVC070 08/07 A2993 RMK AO2 RAE39 SLP135 P0002 T00780067
Loading
Personal Weather Stations






























Interactive Weather Map New forecast layout! Learn more

10-Day Weather Forecast

Advertisements
Track Severe Weather on mobile